Time;durP1;ratioP1;P1;durP2;ratioP2;P2;SDS_P1;SDS_P2;PMS_P1;PMS_P2;Temp;Humidity;BMP_temperature;BMP_pressure;BME280_temperature;BME280_humidity;BME280_pressure;Samples;Min_cycle;Max_cycle;Signal;HPM_P1;HPM_P2
2023/01/13 00:04:11;;;;;;;5;2.5;;;;;;;6.5;77.9;98600;;;;
2023/01/13 00:14:11;;;;;;;3.6;1.8;;;;;;;6.4;77.9;98600;;;;
2023/01/13 00:24:11;;;;;;;3.6;1.8;;;;;;;6.5;77.7;98600;;;;
2023/01/13 00:35:11;;;;;;;3.6;1.8;;;;;;;6.5;77.8;98600;;;;
2023/01/13 00:45:11;;;;;;;3.6;1.8;;;;;;;6.7;77.5;98590;;;;
2023/01/13 00:56:13;;;;;;;3.6;1.8;;;;;;;6.7;77.3;98590;;;;
2023/01/13 01:06:11;;;;;;;3.6;1.8;;;;;;;6.7;77.3;98590;;;;
2023/01/13 01:16:11;;;;;;;3;1.4;;;;;;;6.6;77.7;98580;;;;
2023/01/13 01:27:11;;;;;;;3;1.4;;;;;;;6.6;77.9;98570;;;;
2023/01/13 01:37:11;;;;;;;3;1.4;;;;;;;6.6;77.8;98560;;;;
2023/01/13 01:47:11;;;;;;;3.6;1.4;;;;;;;6.6;77.9;98560;;;;
2023/01/13 01:58:11;;;;;;;3.6;1.4;;;;;;;6.8;77.8;98540;;;;
2023/01/13 02:08:11;;;;;;;3.6;1.4;;;;;;;7;77.2;98530;;;;
2023/01/13 02:19:11;;;;;;;4.3;1.7;;;;;;;7.1;76.3;98530;;;;
2023/01/13 02:40:11;;;;;;;4.3;1.7;;;;;;;7;76.5;98510;;;;
2023/01/13 02:50:11;;;;;;;3.6;1.5;;;;;;;7;76.7;98500;;;;
2023/01/13 03:00:12;;;;;;;3.6;1.5;;;;;;;7.2;76.2;98490;;;;
2023/01/13 03:11:11;;;;;;;3.6;1.5;;;;;;;7.2;75.8;98490;;;;
2023/01/13 03:21:11;;;;;;;2.5;1.4;;;;;;;7.1;76;98470;;;;
2023/01/13 03:32:11;;;;;;;2.5;1.4;;;;;;;7.3;75.7;98470;;;;
2023/01/13 03:44:23;;;;;;;4.4;1.8;;;;;;;7.4;75.3;98460;;;;
2023/01/13 03:54:11;;;;;;;4.4;1.8;;;;;;;7.5;75;98450;;;;
2023/01/13 04:05:13;;;;;;;4.4;1.8;;;;;;;7.6;75;98450;;;;
2023/01/13 04:15:12;;;;;;;4.1;1.9;;;;;;;7.5;75.2;98450;;;;
2023/01/13 04:26:11;;;;;;;4.1;1.9;;;;;;;7.5;75.4;98450;;;;
2023/01/13 04:36:12;;;;;;;4.1;1.9;;;;;;;7.5;75.3;98450;;;;
2023/01/13 04:46:12;;;;;;;3.3;1.8;;;;;;;7.6;75.4;98460;;;;
2023/01/13 04:57:11;;;;;;;3.3;1.8;;;;;;;7.7;75.2;98460;;;;
2023/01/13 05:07:11;;;;;;;3.3;1.8;;;;;;;7.7;75.4;98460;;;;
2023/01/13 05:18:11;;;;;;;3.9;2.1;;;;;;;7.7;75.3;98470;;;;
2023/01/13 05:28:11;;;;;;;3.9;2.1;;;;;;;7.6;75.5;98470;;;;
2023/01/13 05:39:11;;;;;;;3.9;2.1;;;;;;;7.7;75.6;98470;;;;
2023/01/13 05:50:11;;;;;;;2.8;1.7;;;;;;;7.7;75.5;98470;;;;
2023/01/13 06:00:12;;;;;;;2.8;1.7;;;;;;;7.7;75.1;98470;;;;
2023/01/13 06:11:12;;;;;;;2.8;1.7;;;;;;;7.8;74.9;98480;;;;
2023/01/13 06:22:12;;;;;;;2.9;1.6;;;;;;;7.7;75;98480;;;;
2023/01/13 06:32:11;;;;;;;2.9;1.6;;;;;;;7.8;74.9;98490;;;;
2023/01/13 06:43:14;;;;;;;4.5;2;;;;;;;7.9;74.5;98480;;;;
2023/01/13 06:53:11;;;;;;;4.5;2;;;;;;;7.9;74.1;98480;;;;
2023/01/13 07:03:11;;;;;;;4.5;2;;;;;;;8.1;73.6;98490;;;;
2023/01/13 07:24:11;;;;;;;3.9;2.1;;;;;;;8.1;73.3;98490;;;;
2023/01/13 07:35:12;;;;;;;3.9;2.1;;;;;;;8.3;72.7;98490;;;;
2023/01/13 07:45:11;;;;;;;7.9;3.2;;;;;;;8.4;72.4;98490;;;;
2023/01/13 07:56:11;;;;;;;7.9;3.2;;;;;;;8.6;71.5;98500;;;;
2023/01/13 08:06:12;;;;;;;7.9;3.2;;;;;;;8.8;71;98490;;;;
2023/01/13 08:17:11;;;;;;;5;2.6;;;;;;;9;70.2;98480;;;;
2023/01/13 08:28:11;;;;;;;5;2.6;;;;;;;9.2;69.4;98480;;;;
2023/01/13 08:38:12;;;;;;;5;2.6;;;;;;;9.3;69.2;98470;;;;
2023/01/13 08:49:11;;;;;;;5.9;3.3;;;;;;;9.5;68.5;98470;;;;
2023/01/13 08:59:11;;;;;;;5.9;3.3;;;;;;;9.7;68.1;98480;;;;
2023/01/13 09:09:11;;;;;;;5.9;3.3;;;;;;;10;66.9;98480;;;;
2023/01/13 09:19:11;;;;;;;5.1;2.7;;;;;;;10.1;66.5;98470;;;;
2023/01/13 09:29:12;;;;;;;5.1;2.7;;;;;;;10.2;66.7;98450;;;;
2023/01/13 11:34:51;;;;;;;;;;;;;;;;;;;;;
2023/01/13 11:44:48;;;;;;;3.5;2.1;;;;;;;11.6;61.6;98350;;;;
2023/01/13 11:55:49;;;;;;;3.1;1.7;;;;;;;11.8;61.7;98350;;;;
2023/01/13 12:06:49;;;;;;;3.1;1.7;;;;;;;11.9;61.5;98340;;;;
2023/01/13 12:17:48;;;;;;;3.1;1.7;;;;;;;11.9;61.1;98340;;;;
2023/01/13 12:27:48;;;;;;;4.6;1.8;;;;;;;11.8;62;98350;;;;
2023/01/13 12:37:48;;;;;;;4.6;1.8;;;;;;;11.7;62.1;98340;;;;
2023/01/13 12:47:49;;;;;;;4.6;1.8;;;;;;;11.6;62.4;98330;;;;
2023/01/13 12:58:49;;;;;;;3.6;2;;;;;;;11.6;62.7;98330;;;;
2023/01/13 13:08:48;;;;;;;3.6;2;;;;;;;11.5;63.3;98320;;;;
2023/01/13 13:19:49;;;;;;;3.6;2;;;;;;;11.5;63.5;98330;;;;
2023/01/13 13:30:49;;;;;;;6.5;3.1;;;;;;;11.4;62;98330;;;;
2023/01/13 13:51:49;;;;;;;6.5;3.1;;;;;;;11.2;63.1;98350;;;;
2023/01/13 14:02:49;;;;;;;7.4;3;;;;;;;11.1;63.6;98350;;;;
2023/01/13 14:13:49;;;;;;;7.4;3;;;;;;;10.9;63.9;98360;;;;
2023/01/13 14:24:54;;;;;;;7.4;3;;;;;;;10.8;63.4;98360;;;;
2023/01/13 14:35:49;;;;;;;5.1;2.8;;;;;;;10.6;64.7;98370;;;;
2023/01/13 14:45:49;;;;;;;5.1;2.8;;;;;;;10.4;64.9;98380;;;;
2023/01/13 14:55:49;;;;;;;6.7;3.1;;;;;;;10.3;65.7;98380;;;;
2023/01/13 15:05:49;;;;;;;6.7;3.1;;;;;;;10.2;65.4;98390;;;;
2023/01/13 15:15:49;;;;;;;6.7;3.1;;;;;;;10.2;65.4;98390;;;;
2023/01/13 15:25:49;;;;;;;5.1;3.1;;;;;;;10.1;66;98400;;;;
2023/01/13 15:36:49;;;;;;;5.1;3.1;;;;;;;10.1;65.9;98400;;;;
2023/01/13 15:46:49;;;;;;;5.1;3.1;;;;;;;10.1;66.2;98400;;;;
2023/01/13 15:57:49;;;;;;;5.2;2.8;;;;;;;10.1;65.9;98400;;;;
2023/01/13 16:07:49;;;;;;;5.2;2.8;;;;;;;10;66.2;98410;;;;
2023/01/13 16:17:49;;;;;;;5.2;2.8;;;;;;;10;66.2;98410;;;;
2023/01/13 16:27:49;;;;;;;6.8;3.9;;;;;;;9.9;66.2;98420;;;;
2023/01/13 16:37:49;;;;;;;6.8;3.9;;;;;;;9.8;66.2;98420;;;;
2023/01/13 16:48:49;;;;;;;6.8;3.9;;;;;;;9.7;66.7;98430;;;;
2023/01/13 16:59:49;;;;;;;8.4;5.6;;;;;;;9.6;67.8;98440;;;;
2023/01/13 17:09:49;;;;;;;8.4;5.6;;;;;;;9.5;68.1;98440;;;;
2023/01/13 17:19:49;;;;;;;8.4;5.6;;;;;;;9.4;68.9;98450;;;;
2023/01/13 17:30:49;;;;;;;10.1;6;;;;;;;9.3;69.3;98450;;;;
2023/01/13 17:41:49;;;;;;;10.1;6;;;;;;;9.3;70;98450;;;;
2023/01/13 17:51:50;;;;;;;10.1;6;;;;;;;9.3;69.7;98450;;;;
2023/01/13 18:02:49;;;;;;;11.4;5.3;;;;;;;9.3;70;98450;;;;
2023/01/13 18:13:49;;;;;;;11.4;5.3;;;;;;;9.2;70.2;98450;;;;
2023/01/13 18:34:49;;;;;;;11.4;5.8;;;;;;;9.2;70.6;98460;;;;
2023/01/13 18:45:49;;;;;;;11.4;5.8;;;;;;;9.2;70.6;98470;;;;
2023/01/13 18:55:49;;;;;;;8.7;5.9;;;;;;;9.2;70.5;98470;;;;
2023/01/13 19:06:50;;;;;;;8.7;5.9;;;;;;;9.2;70;98470;;;;
2023/01/13 19:17:49;;;;;;;8.7;5.9;;;;;;;9.3;69.6;98490;;;;
2023/01/13 19:28:49;;;;;;;10.4;5.5;;;;;;;9.3;70.4;98510;;;;
2023/01/13 19:38:49;;;;;;;10.4;5.5;;;;;;;9.2;71.8;98540;;;;
2023/01/13 19:48:49;;;;;;;10.4;5.5;;;;;;;9;75.5;98560;;;;
2023/01/13 19:59:49;;;;;;;9.8;5.6;;;;;;;8.6;78.7;98580;;;;
2023/01/13 20:10:49;;;;;;;9.8;5.6;;;;;;;8.3;80.7;98590;;;;
2023/01/13 20:21:49;;;;;;;9.8;5.6;;;;;;;7.9;83.2;98600;;;;
2023/01/13 20:31:49;;;;;;;8;4.2;;;;;;;7.7;82.8;98610;;;;
2023/01/13 20:42:50;;;;;;;8;4.2;;;;;;;7.5;83.9;98620;;;;
2023/01/13 20:53:49;;;;;;;8;4.2;;;;;;;7.4;83.9;98630;;;;
2023/01/13 21:04:49;;;;;;;8;4.9;;;;;;;7.4;84.7;98660;;;;
2023/01/13 21:15:21;;;;;;;8;4.9;;;;;;;7.1;85.1;98670;;;;
2023/01/13 21:25:49;;;;;;;8.4;4.4;;;;;;;7.1;84.8;98680;;;;
2023/01/13 21:35:49;;;;;;;8.4;4.4;;;;;;;7.1;84.6;98690;;;;
2023/01/13 21:56:49;;;;;;;6.1;3.2;;;;;;;6.7;84.1;98690;;;;
2023/01/13 22:07:49;;;;;;;6.1;3.2;;;;;;;6.3;84.4;98690;;;;
2023/01/13 22:17:49;;;;;;;6.1;3.2;;;;;;;6.3;84.4;98690;;;;
2023/01/13 22:27:49;;;;;;;3.7;2.1;;;;;;;6.3;83.6;98700;;;;
2023/01/13 22:37:49;;;;;;;3.7;2.1;;;;;;;6.3;83.8;98700;;;;
2023/01/13 22:47:51;;;;;;;3.7;2.1;;;;;;;6.4;83.3;98710;;;;
2023/01/13 22:57:49;;;;;;;3.9;2.1;;;;;;;6.4;83.1;98700;;;;
2023/01/13 23:07:49;;;;;;;3.9;2.1;;;;;;;6.3;82.9;98710;;;;
2023/01/13 23:17:49;;;;;;;3.9;2.1;;;;;;;6.2;82.7;98710;;;;
2023/01/13 23:28:49;;;;;;;4.9;2.5;;;;;;;6.2;82.5;98710;;;;
2023/01/13 23:38:49;;;;;;;4.9;2.5;;;;;;;6.1;82.5;98710;;;;
2023/01/13 23:49:49;;;;;;;4.9;2.5;;;;;;;6.1;82.6;98720;;;;
